Overview Statistics Trail Chart Weather Telemetry Raw packets
 

This is the latest recevied weather packets stored in our database for station/object KH6DH-13. If no packets are shown the sender has not sent any weather packets the latest 10 day(s).

<< 31 32 33 34 35 36 37 >>
Time Temp. Humidity Pressure Rain* Wind** Luminosity Snow
1788204360 26.67° C - - 0 mm 1.79 m/s, 31° - -
1788203759 26.67° C - - 0 mm 3.13 m/s, 83° - -
1788203158 27.22° C - - 0 mm 3.13 m/s, 24° - -
1788202557 26.67° C - - 0 mm 1.34 m/s, 121° - -
1788201956 26.67° C - - 0 mm 2.68 m/s, 25° - -
1788201355 26.11° C - - 0 mm 2.68 m/s, 39° - -
1788200754 26.67° C - - 0 mm 1.34 m/s, 100° - -
1788200153 26.67° C - - 0 mm 2.68 m/s, 77° - -
1788199552 25.56° C - - 0 mm 2.68 m/s, 84° - -
1788198951 25.56° C - - 0 mm 2.24 m/s, 110° - -
1788198350 25.56° C - - 0 mm 3.13 m/s, 14° - -
1788197749 25.56° C - - 0 mm 1.79 m/s, 25° - -
1788197148 25.56° C - - 0 mm 0.45 m/s, 111° - -
1788196547 25° C - - 0 mm 1.79 m/s, 190° - -
1788195946 25.56° C - - 0 mm 1.34 m/s, 143° - -
1788195345 25° C - - 0 mm 2.24 m/s, 90° - -
1788194744 25° C - - 0 mm 2.68 m/s, 15° - -
1788194143 25° C - - 0 mm 3.13 m/s, 114° - -
1788193542 25.56° C - - 0 mm 2.68 m/s, 340° - -
1788192941 25° C - - 0 mm 4.92 m/s, 135° - -
1788192340 25° C - - 0 mm 2.68 m/s, 312° - -
1788191739 25.56° C - - 0 mm 3.58 m/s, 23° - -
1788191138 25° C - - 0 mm 1.79 m/s, 28° - -
1788190537 25° C - - 0 mm 3.58 m/s, 55° - -
1788189936 25.56° C - - 0 mm 1.34 m/s, 194° - -

* Rain latest hour (hover to see other rain measurements)
** Current wind speed in m/s (hover to see current wind gust speed)